Here is the Quick Look data you requested

The Data originates at the National Weather Service, and is made available here by the UAlbany Department of Atmospheric and Environmental Sciences

Surface Observations

KMKJ 151855Z AUTO 28009KT 10SM SCT060 31/17 A3013 RMK AO2 T03120170=
KMKJ 151915Z AUTO 27008KT 10SM SCT095 31/17 A3012 RMK AO2 T03100166=
KMKJ 151935Z AUTO 22006KT 10SM SCT060 SCT070 31/17 A3011 RMK AO2 T03140165=
KMKJ 151955Z AUTO 24006KT 10SM SCT060 SCT080 SCT110 32/16 A3010 RMK AO2
 T03150163=
KMKJ 152015Z AUTO 23009KT 220V280 10SM SCT070 SCT080 BKN110 32/17 A3009 RMK AO2
 T03200170=
KMKJ 152035Z AUTO 23005KT 10SM SCT070 SCT080 BKN120 30/16 A3009 RMK AO2
 T03040159=
KMKJ 152055Z AUTO 27005KT 10SM SCT070 SCT080 SCT100 30/17 A3009 RMK AO2
 T02960167=
KMKJ 152115Z AUTO 00000KT 10SM SCT060 SCT080 BKN110 30/17 A3008 RMK AO2
 T02950170=
KMKJ 152135Z AUTO 19009G33KT 160V220 2 1/2SM +RA SCT039 BKN060 OVC110 23/17
 A3010 RMK AO2 P0008 T02290168=
KMKJ 152155Z AUTO 00000KT 3SM -RA SCT010 BKN070 OVC110 21/20 A3008 RMK AO2
 P0019 T02090201=
KMKJ 152215Z AUTO 00000KT 10SM SCT010 SCT025 SCT070 24/20 A3008 RMK AO2
 T02420197=
KMKJ 152235Z AUTO 00000KT 10SM CLR 24/22 A3008 RMK AO2 T02350216=
KMKJ 152255Z AUTO 00000KT 10SM SCT075 25/21 A3008 RMK AO2 T02500206=
KMKJ 152315Z AUTO 00000KT 10SM CLR 24/22 A3008 RMK AO2 T02390224=
KMKJ 152335Z AUTO 00000KT 10SM SCT080 24/22 A3008 RMK AO2 T02410223=
KMKJ 152355Z AUTO 00000KT 10SM CLR 24/22 A3009 RMK AO2 60019 T02360223 10321
 20206=
KMKJ 160015Z AUTO 00000KT 10SM SCT060 24/22 A3009 RMK AO2 T02370224=
KMKJ 160035Z AUTO 00000KT 10SM BKN060 23/22 A3010 RMK AO2 T02330223=
KMKJ 160055Z AUTO 00000KT 7SM SCT060 23/22 A3010 RMK AO2 T02270223=
KMKJ 160115Z AUTO 00000KT 7SM SCT060 23/22 A3010 RMK AO2 T02250223=
KMKJ 160135Z AUTO 00000KT 5SM BR BKN060 BKN070 BKN090 22/22 A3011 RMK AO2
 T02220221=
KMKJ 160155Z AUTO 00000KT 5SM BR SCT060 SCT070 SCT090 22/22 A3011 RMK AO2
 T02200220=
KMKJ 160215Z AUTO 00000KT 7SM CLR 22/21 A3010 RMK AO2 T02150213=
KMKJ 160235Z AUTO 00000KT 4SM BR CLR 21/21 A3009 RMK AO2 LTG DSNT W T02120212=
KMKJ 160255Z AUTO 00000KT 3/4SM BR BKN003 21/21 A3009 RMK AO2 T02070207=
KMKJ 160315Z AUTO 00000KT 5SM BR SCT003 21/21 A3009 RMK AO2 T02060206=
KMKJ 160335Z AUTO 00000KT 2 1/2SM BR CLR 20/20 A3009 RMK AO2 T02020202=
KMKJ 160355Z AUTO 00000KT 10SM CLR 20/20 A3008 RMK AO2 T02020199=
KMKJ 160415Z AUTO 00000KT 1 3/4SM BR SCT002 20/20 A3008 RMK AO2 T01970196=
KMKJ 160435Z AUTO 00000KT 5SM BR CLR 20/20 A3008 RMK AO2 T01970197=
KMKJ 160455Z AUTO 00000KT 7SM CLR 20/20 A3009 RMK AO2 T01960196 403210147=
KMKJ 160515Z AUTO 00000KT 3SM BR CLR 19/19 A3009 RMK AO2 T01920192=
KMKJ 160535Z AUTO 00000KT 7SM CLR 19/19 A3009 RMK AO2 T01930193=
KMKJ 160555Z AUTO 00000KT 5SM BR CLR 19/19 A3009 RMK AO2 T01910191 10241 20191=
KMKJ 160615Z AUTO 00000KT 7SM CLR 19/19 A3009 RMK AO2 T01880188=
KMKJ 160635Z AUTO 00000KT 5SM BR CLR 19/19 A3009 RMK AO2 T01850185=
KMKJ 160655Z AUTO 00000KT 7SM CLR 19/19 A3009 RMK AO2 T01850185=
KMKJ 160715Z AUTO 00000KT 10SM CLR 19/19 A3009 RMK AO2 T01870186=
KMKJ 160735Z AUTO 00000KT 7SM CLR 19/19 A3009 RMK AO2 T01860185=
KMKJ 160755Z AUTO 00000KT 10SM CLR 19/18 A3009 RMK AO2 T01850180=
KMKJ 160815Z AUTO 00000KT 10SM CLR 19/18 A3009 RMK AO2 T01880181=
KMKJ 160835Z AUTO 00000KT 10SM CLR 19/18 A3009 RMK AO2 T01880181=
KMKJ 160855Z AUTO 00000KT 10SM CLR 19/18 A3009 RMK AO2 T01920181=
KMKJ 160915Z AUTO 00000KT 10SM CLR 19/18 A3009 RMK AO2 T01920182=
KMKJ 160935Z AUTO 00000KT 10SM CLR 19/18 A3009 RMK AO2 T01910181=
KMKJ 160955Z AUTO 00000KT 10SM CLR 19/18 A3009 RMK AO2 T01900181=
KMKJ 161015Z AUTO 00000KT 10SM CLR 19/18 A3009 RMK AO2 LTG DSNT W T01910180=
KMKJ 161035Z AUTO 00000KT 10SM CLR 19/18 A3010 RMK AO2 T01900180=
KMKJ 161055Z AUTO 00000KT 10SM CLR 19/18 A3009 RMK AO2 T01890180=
KMKJ 161115Z AUTO 00000KT 10SM CLR 19/18 A3009 RMK AO2 T01900182=
KMKJ 161135Z AUTO 00000KT 10SM CLR 20/19 A3010 RMK AO2 T01980185=
KMKJ 161155Z AUTO 00000KT 10SM CLR 20/19 A3011 RMK AO2 70019 T01980188 10200
 20183=
KMKJ 161215Z AUTO 00000KT 10SM CLR 21/19 A3013 RMK AO2 T02090193=
KMKJ 161235Z AUTO 00000KT 10SM CLR 21/20 A3013 RMK AO2 T02120195=
KMKJ 161255Z AUTO 00000KT 10SM CLR 22/20 A3013 RMK AO2 T02180196=
KMKJ 161315Z AUTO 00000KT 10SM CLR 22/20 A3014 RMK AO2 T02220199=
KMKJ 161335Z AUTO 24008KT 220V280 10SM CLR 23/20 A3014 RMK AO2 T02290201=
KMKJ 161355Z AUTO 24010KT 10SM CLR 23/20 A3014 RMK AO2 T02300200=
KMKJ 161415Z AUTO 23009KT 10SM CLR 24/20 A3013 RMK AO2 T02350201=
KMKJ 161435Z AUTO 25008KT 10SM CLR 24/21 A3012 RMK AO2 T02400205=
KMKJ 161455Z AUTO 25010G16KT 10SM SCT018 25/21 A3012 RMK AO2 LTG DSNT W
 T02500206=
KMKJ 161515Z AUTO 24009KT 10SM BKN020 BKN028 26/21 A3013 RMK AO2 T02560210=
KMKJ 161535Z AUTO 25009G14KT 10SM SCT022 SCT028 26/21 A3013 RMK AO2 T02620212=
KMKJ 161555Z AUTO 22006KT 10SM SCT026 SCT032 27/21 A3013 RMK AO2 T02670210=
KMKJ 161615Z AUTO 22005KT 10SM BKN026 27/21 A3012 RMK AO2 T02650208=
KMKJ 161635Z AUTO 25008G14KT 10SM SCT026 28/21 A3011 RMK AO2 T02760210=
KMKJ 161655Z AUTO 23006KT 10SM SCT028 SCT035 SCT041 28/21 A3011 RMK AO2
 T02800209=
KMKJ 161715Z AUTO 23008KT 190V280 10SM SCT030 SCT038 SCT045 28/21 A3009 RMK AO2
 T02840209=
KMKJ 161735Z AUTO 22006KT 10SM SCT033 SCT040 28/21 A3009 RMK AO2 T02830209=
KMKJ 161755Z AUTO 23004KT 10SM SCT033 28/21 A3008 RMK AO2 LTG DSNT W T02840206
 10285 20199=
KMKJ 161815Z AUTO 20005KT 10SM SCT033 29/20 A3007 RMK AO2 LTG DSNT SW T02860203=
KMKJ 161835Z AUTO 22008KT 10SM CLR 29/20 A3007 RMK AO2 LTG DSNT W T02850201=
KMKJ 161855Z AUTO 24010KT 10SM CLR 29/20 A3006 RMK AO2 LTG DSNT SW AND W
 T02860199=
KMKJ 161915Z AUTO 21006KT 10SM CLR 29/20 A3006 RMK AO2 T02910199=
KMKJ 161935Z AUTO 25010KT 10SM SCT044 SCT055 30/20 A3005 RMK AO2 T02950200=

Decoded Surface Observations


The weather observed at MARION / WYTHEVI, VA (KMKJ) at 02:55 PM EDT was:
  The skies were partly cloudy.
  Temperature: 88F ( 31C)  Dewpoint:  63F ( 17C)  Relative Humidity:  43%
  Winds from the W  (280 degs) at 10 mph.
  Altimeter:30.13 inches of mercury.
  The prevailing visibility was 10 miles.

The weather observed at MARION / WYTHEVI, VA (KMKJ) at 03:15 PM EDT was:
  The skies were partly cloudy.
  Temperature: 88F ( 31C)  Dewpoint:  63F ( 17C)  Relative Humidity:  43%
  Winds from the W  (270 degs) at  9 mph.
  Altimeter:30.12 inches of mercury.
  The prevailing visibility was 10 miles.

The weather observed at MARION / WYTHEVI, VA (KMKJ) at 03:35 PM EDT was:
  The skies were partly cloudy.
  Temperature: 88F ( 31C)  Dewpoint:  63F ( 17C)  Relative Humidity:  43%
  Winds from the SW (220 degs) at  7 mph.
  Altimeter:30.11 inches of mercury.
  The prevailing visibility was 10 miles.

The weather observed at MARION / WYTHEVI, VA (KMKJ) at 03:55 PM EDT was:
  The skies were partly cloudy.
  Temperature: 90F ( 32C)  Dewpoint:  61F ( 16C)  Relative Humidity:  38%
  Winds from the SW (240 degs) at  7 mph.
  Altimeter:30.10 inches of mercury.
  The prevailing visibility was 10 miles.

The weather observed at MARION / WYTHEVI, VA (KMKJ) at 04:15 PM EDT was:
  The skies were mostly cloudy.
  Temperature: 90F ( 32C)  Dewpoint:  63F ( 17C)  Relative Humidity:  41%
  Winds from the SW (230 degs) at 10 mph.
  Altimeter:30.09 inches of mercury.
  The prevailing visibility was 10 miles.

The weather observed at MARION / WYTHEVI, VA (KMKJ) at 04:35 PM EDT was:
  The skies were mostly cloudy.
  Temperature: 86F ( 30C)  Dewpoint:  61F ( 16C)  Relative Humidity:  43%
  Winds from the SW (230 degs) at  6 mph.
  Altimeter:30.09 inches of mercury.
  The prevailing visibility was 10 miles.

The weather observed at MARION / WYTHEVI, VA (KMKJ) at 04:55 PM EDT was:
  The skies were partly cloudy.
  Temperature: 86F ( 30C)  Dewpoint:  63F ( 17C)  Relative Humidity:  46%
  Winds from the W  (270 degs) at  6 mph.
  Altimeter:30.09 inches of mercury.
  The prevailing visibility was 10 miles.

The weather observed at MARION / WYTHEVI, VA (KMKJ) at 05:15 PM EDT was:
  The skies were mostly cloudy.
  Temperature: 86F ( 30C)  Dewpoint:  63F ( 17C)  Relative Humidity:  46%
  Winds from the CLM(CLM degs) at  0 mph.
  Altimeter:30.08 inches of mercury.
  The prevailing visibility was 10 miles.

The weather observed at MARION / WYTHEVI, VA (KMKJ) at 05:35 PM EDT was:
  The skies were cloudy.
  The weather reported was heavy rain.
  Temperature: 73F ( 23C)  Dewpoint:  63F ( 17C)  Relative Humidity:  69%
  Winds from the S  (190 degs) at 10 mph.
  Altimeter:30.10 inches of mercury.
  The prevailing visibility was 2.5 miles.
  There has been 0.08 inches of precipitation in the past hour.

The weather observed at MARION / WYTHEVI, VA (KMKJ) at 05:55 PM EDT was:
  The skies were cloudy.
  The weather reported was light rain.
  Temperature: 70F ( 21C)  Dewpoint:  68F ( 20C)  Relative Humidity:  94%
  Winds from the CLM(CLM degs) at  0 mph.
  Altimeter:30.08 inches of mercury.
  The prevailing visibility was 3 miles.
  There has been 0.19 inches of precipitation in the past hour.

The weather observed at MARION / WYTHEVI, VA (KMKJ) at 06:15 PM EDT was:
  The skies were partly cloudy.
  Temperature: 75F ( 24C)  Dewpoint:  68F ( 20C)  Relative Humidity:  78%
  Winds from the CLM(CLM degs) at  0 mph.
  Altimeter:30.08 inches of mercury.
  The prevailing visibility was 10 miles.

The weather observed at MARION / WYTHEVI, VA (KMKJ) at 06:35 PM EDT was:
  The skies were clear.
  Temperature: 75F ( 24C)  Dewpoint:  72F ( 22C)  Relative Humidity:  89%
  Winds from the CLM(CLM degs) at  0 mph.
  Altimeter:30.08 inches of mercury.
  The prevailing visibility was 10 miles.

The weather observed at MARION / WYTHEVI, VA (KMKJ) at 06:55 PM EDT was:
  The skies were partly cloudy.
  Temperature: 77F ( 25C)  Dewpoint:  70F ( 21C)  Relative Humidity:  78%
  Winds from the CLM(CLM degs) at  0 mph.
  Altimeter:30.08 inches of mercury.
  The prevailing visibility was 10 miles.

The weather observed at MARION / WYTHEVI, VA (KMKJ) at 07:15 PM EDT was:
  The skies were clear.
  Temperature: 75F ( 24C)  Dewpoint:  72F ( 22C)  Relative Humidity:  89%
  Winds from the CLM(CLM degs) at  0 mph.
  Altimeter:30.08 inches of mercury.
  The prevailing visibility was 10 miles.

The weather observed at MARION / WYTHEVI, VA (KMKJ) at 07:35 PM EDT was:
  The skies were partly cloudy.
  Temperature: 75F ( 24C)  Dewpoint:  72F ( 22C)  Relative Humidity:  89%
  Winds from the CLM(CLM degs) at  0 mph.
  Altimeter:30.08 inches of mercury.
  The prevailing visibility was 10 miles.

The weather observed at MARION / WYTHEVI, VA (KMKJ) at 07:55 PM EDT was:
  The skies were clear.
  Temperature: 74F ( 24C)  Dewpoint:  72F ( 22C)  Relative Humidity:  92%
  Winds from the CLM(CLM degs) at  0 mph.
  Altimeter:30.09 inches of mercury.
  The prevailing visibility was 10 miles.
  The maximum temperature in the past 6 hours was  90F.
  There has been 0.19 inches of precipitation in the past 6 hours.

The weather observed at MARION / WYTHEVI, VA (KMKJ) at 08:15 PM EDT was:
  The skies were partly cloudy.
  Temperature: 75F ( 24C)  Dewpoint:  72F ( 22C)  Relative Humidity:  89%
  Winds from the CLM(CLM degs) at  0 mph.
  Altimeter:30.09 inches of mercury.
  The prevailing visibility was 10 miles.

The weather observed at MARION / WYTHEVI, VA (KMKJ) at 08:35 PM EDT was:
  The skies were mostly cloudy.
  Temperature: 73F ( 23C)  Dewpoint:  72F ( 22C)  Relative Humidity:  94%
  Winds from the CLM(CLM degs) at  0 mph.
  Altimeter:30.10 inches of mercury.
  The prevailing visibility was 10 miles.

The weather observed at MARION / WYTHEVI, VA (KMKJ) at 08:55 PM EDT was:
  The skies were partly cloudy.
  Temperature: 73F ( 23C)  Dewpoint:  72F ( 22C)  Relative Humidity:  94%
  Winds from the CLM(CLM degs) at  0 mph.
  Altimeter:30.10 inches of mercury.
  The prevailing visibility was 7 miles.

The weather observed at MARION / WYTHEVI, VA (KMKJ) at 09:15 PM EDT was:
  The skies were partly cloudy.
  Temperature: 73F ( 23C)  Dewpoint:  72F ( 22C)  Relative Humidity:  94%
  Winds from the CLM(CLM degs) at  0 mph.
  Altimeter:30.10 inches of mercury.
  The prevailing visibility was 7 miles.

The weather observed at MARION / WYTHEVI, VA (KMKJ) at 09:35 PM EDT was:
  The skies were mostly cloudy.
  The weather reported was fog.
  Temperature: 72F ( 22C)  Dewpoint:  72F ( 22C)  Relative Humidity: 100%
  Winds from the CLM(CLM degs) at  0 mph.
  Altimeter:30.11 inches of mercury.
  The prevailing visibility was 5 miles.

The weather observed at MARION / WYTHEVI, VA (KMKJ) at 09:55 PM EDT was:
  The skies were partly cloudy.
  The weather reported was fog.
  Temperature: 72F ( 22C)  Dewpoint:  72F ( 22C)  Relative Humidity: 100%
  Winds from the CLM(CLM degs) at  0 mph.
  Altimeter:30.11 inches of mercury.
  The prevailing visibility was 5 miles.

The weather observed at MARION / WYTHEVI, VA (KMKJ) at 10:15 PM EDT was:
  The skies were clear.
  Temperature: 72F ( 22C)  Dewpoint:  70F ( 21C)  Relative Humidity:  94%
  Winds from the CLM(CLM degs) at  0 mph.
  Altimeter:30.10 inches of mercury.
  The prevailing visibility was 7 miles.

The weather observed at MARION / WYTHEVI, VA (KMKJ) at 10:35 PM EDT was:
  The skies were clear.
  The weather reported was fog.
  Temperature: 70F ( 21C)  Dewpoint:  70F ( 21C)  Relative Humidity: 100%
  Winds from the CLM(CLM degs) at  0 mph.
  Altimeter:30.09 inches of mercury.
  The prevailing visibility was 4 miles.

The weather observed at MARION / WYTHEVI, VA (KMKJ) at 10:55 PM EDT was:
  The skies were mostly cloudy.
  The weather reported was fog.
  Temperature: 70F ( 21C)  Dewpoint:  70F ( 21C)  Relative Humidity: 100%
  Winds from the CLM(CLM degs) at  0 mph.
  Altimeter:30.09 inches of mercury.
  The prevailing visibility was .75 miles.

The weather observed at MARION / WYTHEVI, VA (KMKJ) at 11:15 PM EDT was:
  The skies were partly cloudy.
  The weather reported was fog.
  Temperature: 70F ( 21C)  Dewpoint:  70F ( 21C)  Relative Humidity: 100%
  Winds from the CLM(CLM degs) at  0 mph.
  Altimeter:30.09 inches of mercury.
  The prevailing visibility was 5 miles.

The weather observed at MARION / WYTHEVI, VA (KMKJ) at 11:35 PM EDT was:
  The skies were clear.
  The weather reported was fog.
  Temperature: 68F ( 20C)  Dewpoint:  68F ( 20C)  Relative Humidity: 100%
  Winds from the CLM(CLM degs) at  0 mph.
  Altimeter:30.09 inches of mercury.
  The prevailing visibility was 2.5 miles.

The weather observed at MARION / WYTHEVI, VA (KMKJ) at 11:55 PM EDT was:
  The skies were clear.
  Temperature: 68F ( 20C)  Dewpoint:  68F ( 20C)  Relative Humidity: 100%
  Winds from the CLM(CLM degs) at  0 mph.
  Altimeter:30.08 inches of mercury.
  The prevailing visibility was 10 miles.

The weather observed at MARION / WYTHEVI, VA (KMKJ) at 12:15 AM EDT was:
  The skies were partly cloudy.
  The weather reported was fog.
  Temperature: 68F ( 20C)  Dewpoint:  68F ( 20C)  Relative Humidity: 100%
  Winds from the CLM(CLM degs) at  0 mph.
  Altimeter:30.08 inches of mercury.
  The prevailing visibility was 1.75 miles.

The weather observed at MARION / WYTHEVI, VA (KMKJ) at 12:35 AM EDT was:
  The skies were clear.
  The weather reported was fog.
  Temperature: 68F ( 20C)  Dewpoint:  68F ( 20C)  Relative Humidity: 100%
  Winds from the CLM(CLM degs) at  0 mph.
  Altimeter:30.08 inches of mercury.
  The prevailing visibility was 5 miles.

The weather observed at MARION / WYTHEVI, VA (KMKJ) at 12:55 AM EDT was:
  The skies were clear.
  Temperature: 67F ( 20C)  Dewpoint:  67F ( 20C)  Relative Humidity: 100%
  Winds from the CLM(CLM degs) at  0 mph.
  Altimeter:30.09 inches of mercury.
  The prevailing visibility was 7 miles.

The weather observed at MARION / WYTHEVI, VA (KMKJ) at 01:15 AM EDT was:
  The skies were clear.
  The weather reported was fog.
  Temperature: 66F ( 19C)  Dewpoint:  66F ( 19C)  Relative Humidity: 100%
  Winds from the CLM(CLM degs) at  0 mph.
  Altimeter:30.09 inches of mercury.
  The prevailing visibility was 3 miles.

The weather observed at MARION / WYTHEVI, VA (KMKJ) at 01:35 AM EDT was:
  The skies were clear.
  Temperature: 66F ( 19C)  Dewpoint:  66F ( 19C)  Relative Humidity: 100%
  Winds from the CLM(CLM degs) at  0 mph.
  Altimeter:30.09 inches of mercury.
  The prevailing visibility was 7 miles.

The weather observed at MARION / WYTHEVI, VA (KMKJ) at 01:55 AM EDT was:
  The skies were clear.
  The weather reported was fog.
  Temperature: 66F ( 19C)  Dewpoint:  66F ( 19C)  Relative Humidity: 100%
  Winds from the CLM(CLM degs) at  0 mph.
  Altimeter:30.09 inches of mercury.
  The prevailing visibility was 5 miles.
  The maximum temperature in the past 6 hours was  75F.

The weather observed at MARION / WYTHEVI, VA (KMKJ) at 02:15 AM EDT was:
  The skies were clear.
  Temperature: 66F ( 19C)  Dewpoint:  66F ( 19C)  Relative Humidity: 100%
  Winds from the CLM(CLM degs) at  0 mph.
  Altimeter:30.09 inches of mercury.
  The prevailing visibility was 7 miles.

The weather observed at MARION / WYTHEVI, VA (KMKJ) at 02:35 AM EDT was:
  The skies were clear.
  The weather reported was fog.
  Temperature: 66F ( 19C)  Dewpoint:  66F ( 19C)  Relative Humidity: 100%
  Winds from the CLM(CLM degs) at  0 mph.
  Altimeter:30.09 inches of mercury.
  The prevailing visibility was 5 miles.

The weather observed at MARION / WYTHEVI, VA (KMKJ) at 02:55 AM EDT was:
  The skies were clear.
  Temperature: 66F ( 19C)  Dewpoint:  66F ( 19C)  Relative Humidity: 100%
  Winds from the CLM(CLM degs) at  0 mph.
  Altimeter:30.09 inches of mercury.
  The prevailing visibility was 7 miles.

The weather observed at MARION / WYTHEVI, VA (KMKJ) at 03:15 AM EDT was:
  The skies were clear.
  Temperature: 66F ( 19C)  Dewpoint:  66F ( 19C)  Relative Humidity: 100%
  Winds from the CLM(CLM degs) at  0 mph.
  Altimeter:30.09 inches of mercury.
  The prevailing visibility was 10 miles.

The weather observed at MARION / WYTHEVI, VA (KMKJ) at 03:35 AM EDT was:
  The skies were clear.
  Temperature: 66F ( 19C)  Dewpoint:  66F ( 19C)  Relative Humidity: 100%
  Winds from the CLM(CLM degs) at  0 mph.
  Altimeter:30.09 inches of mercury.
  The prevailing visibility was 7 miles.

The weather observed at MARION / WYTHEVI, VA (KMKJ) at 03:55 AM EDT was:
  The skies were clear.
  Temperature: 66F ( 19C)  Dewpoint:  64F ( 18C)  Relative Humidity:  94%
  Winds from the CLM(CLM degs) at  0 mph.
  Altimeter:30.09 inches of mercury.
  The prevailing visibility was 10 miles.

The weather observed at MARION / WYTHEVI, VA (KMKJ) at 04:15 AM EDT was:
  The skies were clear.
  Temperature: 66F ( 19C)  Dewpoint:  64F ( 18C)  Relative Humidity:  94%
  Winds from the CLM(CLM degs) at  0 mph.
  Altimeter:30.09 inches of mercury.
  The prevailing visibility was 10 miles.

The weather observed at MARION / WYTHEVI, VA (KMKJ) at 04:35 AM EDT was:
  The skies were clear.
  Temperature: 66F ( 19C)  Dewpoint:  64F ( 18C)  Relative Humidity:  94%
  Winds from the CLM(CLM degs) at  0 mph.
  Altimeter:30.09 inches of mercury.
  The prevailing visibility was 10 miles.

The weather observed at MARION / WYTHEVI, VA (KMKJ) at 04:55 AM EDT was:
  The skies were clear.
  Temperature: 66F ( 19C)  Dewpoint:  64F ( 18C)  Relative Humidity:  94%
  Winds from the CLM(CLM degs) at  0 mph.
  Altimeter:30.09 inches of mercury.
  The prevailing visibility was 10 miles.

The weather observed at MARION / WYTHEVI, VA (KMKJ) at 05:15 AM EDT was:
  The skies were clear.
  Temperature: 66F ( 19C)  Dewpoint:  64F ( 18C)  Relative Humidity:  94%
  Winds from the CLM(CLM degs) at  0 mph.
  Altimeter:30.09 inches of mercury.
  The prevailing visibility was 10 miles.

The weather observed at MARION / WYTHEVI, VA (KMKJ) at 05:35 AM EDT was:
  The skies were clear.
  Temperature: 66F ( 19C)  Dewpoint:  64F ( 18C)  Relative Humidity:  94%
  Winds from the CLM(CLM degs) at  0 mph.
  Altimeter:30.09 inches of mercury.
  The prevailing visibility was 10 miles.

The weather observed at MARION / WYTHEVI, VA (KMKJ) at 05:55 AM EDT was:
  The skies were clear.
  Temperature: 66F ( 19C)  Dewpoint:  64F ( 18C)  Relative Humidity:  94%
  Winds from the CLM(CLM degs) at  0 mph.
  Altimeter:30.09 inches of mercury.
  The prevailing visibility was 10 miles.

The weather observed at MARION / WYTHEVI, VA (KMKJ) at 06:15 AM EDT was:
  The skies were clear.
  Temperature: 66F ( 19C)  Dewpoint:  64F ( 18C)  Relative Humidity:  94%
  Winds from the CLM(CLM degs) at  0 mph.
  Altimeter:30.09 inches of mercury.
  The prevailing visibility was 10 miles.

The weather observed at MARION / WYTHEVI, VA (KMKJ) at 06:35 AM EDT was:
  The skies were clear.
  Temperature: 66F ( 19C)  Dewpoint:  64F ( 18C)  Relative Humidity:  94%
  Winds from the CLM(CLM degs) at  0 mph.
  Altimeter:30.10 inches of mercury.
  The prevailing visibility was 10 miles.

The weather observed at MARION / WYTHEVI, VA (KMKJ) at 06:55 AM EDT was:
  The skies were clear.
  Temperature: 66F ( 19C)  Dewpoint:  64F ( 18C)  Relative Humidity:  94%
  Winds from the CLM(CLM degs) at  0 mph.
  Altimeter:30.09 inches of mercury.
  The prevailing visibility was 10 miles.

The weather observed at MARION / WYTHEVI, VA (KMKJ) at 07:15 AM EDT was:
  The skies were clear.
  Temperature: 66F ( 19C)  Dewpoint:  64F ( 18C)  Relative Humidity:  94%
  Winds from the CLM(CLM degs) at  0 mph.
  Altimeter:30.09 inches of mercury.
  The prevailing visibility was 10 miles.

The weather observed at MARION / WYTHEVI, VA (KMKJ) at 07:35 AM EDT was:
  The skies were clear.
  Temperature: 68F ( 20C)  Dewpoint:  66F ( 19C)  Relative Humidity:  94%
  Winds from the CLM(CLM degs) at  0 mph.
  Altimeter:30.10 inches of mercury.
  The prevailing visibility was 10 miles.

The weather observed at MARION / WYTHEVI, VA (KMKJ) at 07:55 AM EDT was:
  The skies were clear.
  Temperature: 68F ( 20C)  Dewpoint:  66F ( 19C)  Relative Humidity:  94%
  Winds from the CLM(CLM degs) at  0 mph.
  Altimeter:30.11 inches of mercury.
  The prevailing visibility was 10 miles.
  The maximum temperature in the past 6 hours was  68F.
  There has been 0.19 inches of precipitation in the past 24 hours.

The weather observed at MARION / WYTHEVI, VA (KMKJ) at 08:15 AM EDT was:
  The skies were clear.
  Temperature: 70F ( 21C)  Dewpoint:  66F ( 19C)  Relative Humidity:  88%
  Winds from the CLM(CLM degs) at  0 mph.
  Altimeter:30.13 inches of mercury.
  The prevailing visibility was 10 miles.

The weather observed at MARION / WYTHEVI, VA (KMKJ) at 08:35 AM EDT was:
  The skies were clear.
  Temperature: 70F ( 21C)  Dewpoint:  68F ( 20C)  Relative Humidity:  94%
  Winds from the CLM(CLM degs) at  0 mph.
  Altimeter:30.13 inches of mercury.
  The prevailing visibility was 10 miles.

The weather observed at MARION / WYTHEVI, VA (KMKJ) at 08:55 AM EDT was:
  The skies were clear.
  Temperature: 72F ( 22C)  Dewpoint:  68F ( 20C)  Relative Humidity:  88%
  Winds from the CLM(CLM degs) at  0 mph.
  Altimeter:30.13 inches of mercury.
  The prevailing visibility was 10 miles.

The weather observed at MARION / WYTHEVI, VA (KMKJ) at 09:15 AM EDT was:
  The skies were clear.
  Temperature: 72F ( 22C)  Dewpoint:  68F ( 20C)  Relative Humidity:  88%
  Winds from the CLM(CLM degs) at  0 mph.
  Altimeter:30.14 inches of mercury.
  The prevailing visibility was 10 miles.

The weather observed at MARION / WYTHEVI, VA (KMKJ) at 09:35 AM EDT was:
  The skies were clear.
  Temperature: 73F ( 23C)  Dewpoint:  68F ( 20C)  Relative Humidity:  83%
  Winds from the SW (240 degs) at  9 mph.
  Altimeter:30.14 inches of mercury.
  The prevailing visibility was 10 miles.

The weather observed at MARION / WYTHEVI, VA (KMKJ) at 09:55 AM EDT was:
  The skies were clear.
  Temperature: 73F ( 23C)  Dewpoint:  68F ( 20C)  Relative Humidity:  83%
  Winds from the SW (240 degs) at 12 mph.
  Altimeter:30.14 inches of mercury.
  The prevailing visibility was 10 miles.

The weather observed at MARION / WYTHEVI, VA (KMKJ) at 10:15 AM EDT was:
  The skies were clear.
  Temperature: 75F ( 24C)  Dewpoint:  68F ( 20C)  Relative Humidity:  78%
  Winds from the SW (230 degs) at 10 mph.
  Altimeter:30.13 inches of mercury.
  The prevailing visibility was 10 miles.

The weather observed at MARION / WYTHEVI, VA (KMKJ) at 10:35 AM EDT was:
  The skies were clear.
  Temperature: 75F ( 24C)  Dewpoint:  70F ( 21C)  Relative Humidity:  83%
  Winds from the WSW(250 degs) at  9 mph.
  Altimeter:30.12 inches of mercury.
  The prevailing visibility was 10 miles.

The weather observed at MARION / WYTHEVI, VA (KMKJ) at 10:55 AM EDT was:
  The skies were partly cloudy.
  Temperature: 77F ( 25C)  Dewpoint:  70F ( 21C)  Relative Humidity:  78%
  Winds from the WSW(250 degs) at 12 mph.
  Altimeter:30.12 inches of mercury.
  The prevailing visibility was 10 miles.

The weather observed at MARION / WYTHEVI, VA (KMKJ) at 11:15 AM EDT was:
  The skies were mostly cloudy.
  Temperature: 79F ( 26C)  Dewpoint:  70F ( 21C)  Relative Humidity:  74%
  Winds from the SW (240 degs) at 10 mph.
  Altimeter:30.13 inches of mercury.
  The prevailing visibility was 10 miles.

The weather observed at MARION / WYTHEVI, VA (KMKJ) at 11:35 AM EDT was:
  The skies were partly cloudy.
  Temperature: 79F ( 26C)  Dewpoint:  70F ( 21C)  Relative Humidity:  74%
  Winds from the WSW(250 degs) at 10 mph.
  Altimeter:30.13 inches of mercury.
  The prevailing visibility was 10 miles.

The weather observed at MARION / WYTHEVI, VA (KMKJ) at 11:55 AM EDT was:
  The skies were partly cloudy.
  Temperature: 81F ( 27C)  Dewpoint:  70F ( 21C)  Relative Humidity:  70%
  Winds from the SW (220 degs) at  7 mph.
  Altimeter:30.13 inches of mercury.
  The prevailing visibility was 10 miles.

The weather observed at MARION / WYTHEVI, VA (KMKJ) at 12:15 PM EDT was:
  The skies were mostly cloudy.
  Temperature: 81F ( 27C)  Dewpoint:  70F ( 21C)  Relative Humidity:  70%
  Winds from the SW (220 degs) at  6 mph.
  Altimeter:30.12 inches of mercury.
  The prevailing visibility was 10 miles.

The weather observed at MARION / WYTHEVI, VA (KMKJ) at 12:35 PM EDT was:
  The skies were partly cloudy.
  Temperature: 82F ( 28C)  Dewpoint:  70F ( 21C)  Relative Humidity:  66%
  Winds from the WSW(250 degs) at  9 mph.
  Altimeter:30.11 inches of mercury.
  The prevailing visibility was 10 miles.

The weather observed at MARION / WYTHEVI, VA (KMKJ) at 12:55 PM EDT was:
  The skies were partly cloudy.
  Temperature: 82F ( 28C)  Dewpoint:  70F ( 21C)  Relative Humidity:  66%
  Winds from the SW (230 degs) at  7 mph.
  Altimeter:30.11 inches of mercury.
  The prevailing visibility was 10 miles.

The weather observed at MARION / WYTHEVI, VA (KMKJ) at 01:15 PM EDT was:
  The skies were partly cloudy.
  Temperature: 82F ( 28C)  Dewpoint:  70F ( 21C)  Relative Humidity:  66%
  Winds from the SW (230 degs) at  9 mph.
  Altimeter:30.09 inches of mercury.
  The prevailing visibility was 10 miles.

The weather observed at MARION / WYTHEVI, VA (KMKJ) at 01:35 PM EDT was:
  The skies were partly cloudy.
  Temperature: 82F ( 28C)  Dewpoint:  70F ( 21C)  Relative Humidity:  66%
  Winds from the SW (220 degs) at  7 mph.
  Altimeter:30.09 inches of mercury.
  The prevailing visibility was 10 miles.

The weather observed at MARION / WYTHEVI, VA (KMKJ) at 01:55 PM EDT was:
  The skies were partly cloudy.
  Temperature: 83F ( 28C)  Dewpoint:  69F ( 21C)  Relative Humidity:  63%
  Winds from the SW (230 degs) at  5 mph.
  Altimeter:30.08 inches of mercury.
  The prevailing visibility was 10 miles.
  The maximum temperature in the past 6 hours was  83F.

The weather observed at MARION / WYTHEVI, VA (KMKJ) at 02:15 PM EDT was:
  The skies were partly cloudy.
  Temperature: 84F ( 29C)  Dewpoint:  68F ( 20C)  Relative Humidity:  58%
  Winds from the SSW(200 degs) at  6 mph.
  Altimeter:30.07 inches of mercury.
  The prevailing visibility was 10 miles.

The weather observed at MARION / WYTHEVI, VA (KMKJ) at 02:35 PM EDT was:
  The skies were clear.
  Temperature: 84F ( 29C)  Dewpoint:  68F ( 20C)  Relative Humidity:  58%
  Winds from the SW (220 degs) at  9 mph.
  Altimeter:30.07 inches of mercury.
  The prevailing visibility was 10 miles.

The weather observed at MARION / WYTHEVI, VA (KMKJ) at 02:55 PM EDT was:
  The skies were clear.
  Temperature: 84F ( 29C)  Dewpoint:  68F ( 20C)  Relative Humidity:  58%
  Winds from the SW (240 degs) at 12 mph.
  Altimeter:30.06 inches of mercury.
  The prevailing visibility was 10 miles.

The weather observed at MARION / WYTHEVI, VA (KMKJ) at 03:15 PM EDT was:
  The skies were clear.
  Temperature: 84F ( 29C)  Dewpoint:  68F ( 20C)  Relative Humidity:  58%
  Winds from the SW (210 degs) at  7 mph.
  Altimeter:30.06 inches of mercury.
  The prevailing visibility was 10 miles.

The weather observed at MARION / WYTHEVI, VA (KMKJ) at 03:35 PM EDT was:
  The skies were partly cloudy.
  Temperature: 86F ( 30C)  Dewpoint:  68F ( 20C)  Relative Humidity:  55%
  Winds from the WSW(250 degs) at 12 mph.
  Altimeter:30.05 inches of mercury.
  The prevailing visibility was 10 miles.

Short Range Forecast

Sorry no data found for mkj
Make sure mkj is a valid station
You might need to specify a nearby major city
Try Again

Zone Forecast

VAZ009-170300-
Smyth-
Including the city of Marion
302 PM EDT Tue Jul 16 2024

.THIS AFTERNOON...Mostly sunny with a slight chance of showers
and thunderstorms. Hot. Near steady temperature in the upper 80s.
West winds around 10 mph. Chance of rain 20 percent.
.TONIGHT...A slight chance of thunderstorms in the evening.
Partly cloudy with a slight chance of showers. Humid with lows in
the upper 60s. West winds 5 to 10 mph. Chance of rain 20 percent.
.WEDNESDAY...Partly sunny. Showers with thunderstorms likely in
the afternoon. Humid with highs in the lower 80s. West winds 5 to
10 mph. Chance of rain 80 percent.
.WEDNESDAY NIGHT...Showers with thunderstorms likely in the
evening, then showers likely with a chance of thunderstorms after
midnight. Humid with lows in the mid 60s. West winds 5 to 10 mph.
Chance of rain 80 percent.
.THURSDAY...Showers likely with a chance of thunderstorms. Humid
with highs in the mid 70s. West winds around 5 mph. Chance of
rain 70 percent.
.THURSDAY NIGHT...Mostly cloudy in the evening, then becoming
partly cloudy. Showers likely in the evening. Lows in the upper
50s. Chance of rain 70 percent.
.FRIDAY AND FRIDAY NIGHT...Mostly cloudy. A chance of showers and
thunderstorms. Highs in the mid 70s. Lows in the lower 60s.
Chance of rain 50 percent.
.SATURDAY THROUGH MONDAY...Mostly cloudy with showers likely with
a chance of thunderstorms. Highs in the upper 70s. Lows in the
lower 60s. Chance of rain 70 percent.


State Forecast

Sorry no data found for mkj
Make sure mkj is a valid station
You might need to specify a nearby major city
Try Again

State Forecast Discussion

Sorry no data found for mkj
Make sure mkj is a valid station
You might need to specify a nearby major city
Try Again

GFS Short-Range Model Output Statistics (MOS) Forecast

KMKJ   GFS MOS GUIDANCE    7/16/2024  1200 UTC
DT /JULY 16/JULY 17                /JULY 18                /JULY 19
HR   18 21 00 03 06 09 12 15 18 21 00 03 06 09 12 15 18 21 00 06 12
N/X                    66          85          67          79    59
TMP  88 88 82 72 69 67 71 81 82 80 75 71 69 69 69 73 75 75 71 62 62
DPT  68 67 68 68 67 66 68 71 71 70 70 68 66 66 66 67 65 64 63 58 59
CLD  SC SC OV BK BK OV OV BK OV OV OV OV OV OV OV OV OV OV BK BK BK
WDR  25 25 26 26 26 25 25 25 25 27 27 26 27 27 27 28 28 29 30 27 36
WSP  10 08 05 03 02 03 04 10 13 11 05 03 02 02 03 05 06 06 04 02 03
P06        15    32    10    20    55    60    39    47    34  6  5
P12                    41          77          68          64    10
Q06         0     0     0     0     2     2     1     2     0  0  0
Q12                     0           2           2           2     0
T06     34/14 27/ 2  5/ 1 21/ 4 55/19 27/ 2  9/ 1 24/ 3 32/ 9  1/ 0
T12           59/14       24/ 5       70/20       31/ 4    32/ 9
CIG   8  8  8  8  8  7  7  8  7  7  7  5  1  1  2  5  6  7  8  7  1
VIS   7  7  7  7  5  7  7  7  7  7  7  5  1  1  4  7  7  7  7  7  7
OBV   N  N  N  N BR  N  N  N  N  N  N BR FG FG BR  N  N  N  N  N  N

GFS Long-Range Model Output Statistics (MOS) Forecast

KMKJ   GFSX MOS GUIDANCE   7/16/2024  1200 UTC
FHR  24  36| 48  60| 72  84| 96 108|120 132|144 156|168 180|192
     WED 17| THU 18| FRI 19| SAT 20| SUN 21| MON 22| TUE 23|WED CLIMO
N/X  66  85| 67  79| 59  82| 64  79| 64  83| 64  82| 64  83| 61 58 81
TMP  71  75| 69  71| 62  74| 66  73| 67  74| 67  74| 66  75| 64
DPT  68  70| 66  63| 59  63| 63  67| 63  66| 66  65| 65  67| 61
CLD  OV  OV| OV  OV| PC  PC| OV  OV| OV  OV| OV  OV| OV  OV| OV
WND   5  13|  5   6|  4   4|  2   4|  3   6|  3   6|  4   6|  3
P12  41  77| 68  64| 10  18| 33  62| 45  39| 38  51| 41  46| 36999999
P24      77|     81|     25|     68|     60|     64|     70|      999
Q12   0   2|  2   2|  0   0|  0   3|  1   0|  1   3|       |
Q24       2|      3|      0|      2|      2|      3|       |
T12  27  56| 32  35|  4  28| 12  46| 22  42| 19  40| 17  39| 15
T24        | 64    | 35    | 29    | 49    | 45    | 41    | 39

NGM Model Output Statistics (MOS) Forecast

Climatological Summary

Sorry no data found for mkj
Make sure mkj is a valid station
You might need to specify a nearby major city
Try Again

Watch and Warning Statment

Sorry no data found for mkj
Make sure mkj is a valid station
You might need to specify a nearby major city
or it could be THERE ARE NO WATCHES OR WARNINGS for mkj
Try Again

Park/Ski Recreation Report/Forecast

Sorry no data found for mkj
Make sure mkj is a valid station
You might need to specify a nearby major city
Try Again